createdAt,value
2023-09-01T00:01:06.855Z,100806.53
2023-09-01T00:02:08.995Z,100800.38
2023-09-01T00:03:11.199Z,100804.22
2023-09-01T00:04:13.295Z,100809.16
2023-09-01T00:05:15.453Z,100806.63
2023-09-01T00:06:17.458Z,100802.78
2023-09-01T00:07:19.487Z,100807.09
2023-09-01T00:08:21.549Z,100813.28
2023-09-01T00:09:23.540Z,100812.41
2023-09-01T00:10:25.508Z,100809.41
2023-09-01T00:11:27.486Z,100803.50
2023-09-01T00:12:29.468Z,100805.66
2023-09-01T00:13:31.533Z,100812.41
2023-09-01T00:14:33.612Z,100810.50
2023-09-01T00:15:35.994Z,100821.34
2023-09-01T00:16:38.023Z,100817.13
2023-09-01T00:17:40.089Z,100817.38
2023-09-01T00:18:42.138Z,100816.03
2023-09-01T00:19:44.117Z,100808.81
2023-09-01T00:20:46.123Z,100807.97
2023-09-01T00:21:48.112Z,100808.19
2023-09-01T00:22:50.110Z,100809.03
2023-09-01T00:23:52.148Z,100809.88
2023-09-01T00:24:54.162Z,100811.81
2023-09-01T00:25:56.750Z,100813.75
2023-09-01T00:26:59.084Z,100810.38
2023-09-01T00:28:01.062Z,100813.75
2023-09-01T00:29:03.370Z,100810.38
2023-09-01T00:30:05.980Z,100804.44
2023-09-01T00:31:08.005Z,100805.91
2023-09-01T00:32:10.039Z,100808.44
2023-09-01T00:33:12.063Z,100811.44
2023-09-01T00:34:14.069Z,100809.38
2023-09-01T00:35:16.344Z,100811.31
2023-09-01T00:36:18.345Z,100810.72
2023-09-01T00:37:20.347Z,100810.72
2023-09-01T00:38:22.359Z,100812.41
2023-09-01T00:39:24.368Z,100817.09
2023-09-01T00:40:26.618Z,100813.72
2023-09-01T00:41:28.589Z,100814.56
2023-09-01T00:42:30.587Z,100813.97
2023-09-01T00:43:32.644Z,100813.09
2023-09-01T00:44:34.676Z,100813.31
2023-09-01T00:45:36.960Z,100814.41
2023-09-01T00:46:40.917Z,100814.88
2023-09-01T00:47:43.057Z,100821.50
2023-09-01T00:48:45.167Z,100818.25
2023-09-01T00:49:47.200Z,100824.91
2023-09-01T00:50:50.485Z,100822.97
2023-09-01T00:51:52.489Z,100824.66
2023-09-01T00:52:54.836Z,100819.72
2023-09-01T00:53:56.872Z,100817.19
2023-09-01T00:54:58.848Z,100818.88
2023-09-01T00:56:00.879Z,100816.09
2023-09-01T00:57:02.852Z,100828.03
2023-09-01T00:58:04.935Z,100818.63
2023-09-01T00:59:07.389Z,100823.13
2023-09-01T01:00:09.719Z,100832.31
2023-09-01T01:01:11.953Z,100830.81
2023-09-01T01:02:14.065Z,100827.44
2023-09-01T01:03:16.131Z,100835.75
2023-09-01T01:04:18.474Z,100833.81
2023-09-01T01:05:20.648Z,100834.06
2023-09-01T01:06:45.229Z,100836.00
2023-09-01T01:07:49.167Z,100839.84
2023-09-01T01:09:11.979Z,100844.78
2023-09-01T01:10:14.140Z,100849.25
2023-09-01T01:11:36.253Z,100839.84
2023-09-01T01:12:49.195Z,100837.53
2023-09-01T01:13:53.908Z,100848.28
2023-09-01T01:14:55.912Z,100841.25
2023-09-01T01:15:57.978Z,100848.50
2023-09-01T01:16:59.987Z,100849.34
2023-09-01T01:18:06.173Z,100850.44
2023-09-01T01:19:17.204Z,100850.44
2023-09-01T01:20:39.648Z,100850.66
2023-09-01T01:21:41.692Z,100855.84
2023-09-01T01:22:48.096Z,100849.81
2023-09-01T01:23:51.233Z,100850.53
2023-09-01T01:24:53.191Z,100846.91
2023-09-01T01:25:55.223Z,100849.69
2023-09-01T01:26:57.201Z,100851.00
2023-09-01T01:27:59.194Z,100851.47
2023-09-01T01:29:01.226Z,100849.53
2023-09-01T01:30:03.317Z,100845.78
2023-09-01T01:31:05.925Z,100848.09
2023-09-01T01:32:07.940Z,100851.09
2023-09-01T01:33:23.438Z,100847.94
2023-09-01T01:34:35.453Z,100851.81
2023-09-01T01:35:47.151Z,100853.13
2023-09-01T01:36:55.216Z,100856.13
2023-09-01T01:38:04.429Z,100856.22
2023-09-01T01:39:14.256Z,100850.91
2023-09-01T01:40:16.253Z,100853.66
2023-09-01T01:41:43.957Z,100848.59
2023-09-01T01:42:47.773Z,100857.59
2023-09-01T01:43:50.832Z,100853.53
2023-09-01T01:44:52.872Z,100853.00
2023-09-01T01:45:54.904Z,100850.84
2023-09-01T01:46:57.444Z,100847.84
2023-09-01T01:47:59.545Z,100851.69
2023-09-01T01:49:01.568Z,100855.91
2023-09-01T01:50:03.596Z,100849.16
2023-09-01T01:51:06.962Z,100850.00
2023-09-01T01:52:08.990Z,100852.53
2023-09-01T01:53:10.970Z,100852.53
2023-09-01T01:54:13.037Z,100847.22
2023-09-01T01:55:15.081Z,100845.28
2023-09-01T01:56:17.130Z,100844.44
2023-09-01T01:57:19.488Z,100838.91
2023-09-01T01:58:21.506Z,100837.44
2023-09-01T01:59:23.521Z,100844.53
2023-09-01T02:00:28.144Z,100847.53
2023-09-01T02:01:30.267Z,100844.63
2023-09-01T02:02:32.427Z,100841.59
2023-09-01T02:03:35.717Z,100842.06
2023-09-01T02:04:37.821Z,100845.06
2023-09-01T02:05:39.872Z,100852.53
2023-09-01T02:06:41.867Z,100850.84
2023-09-01T02:07:43.863Z,100853.25
2023-09-01T02:08:45.997Z,100851.00
2023-09-01T02:09:48.003Z,100843.94
2023-09-01T02:10:50.071Z,100842.47
2023-09-01T02:11:52.047Z,100845.06
2023-09-01T02:12:54.023Z,100841.91
2023-09-01T02:13:56.568Z,100847.69
2023-09-01T02:14:58.565Z,100858.16
2023-09-01T02:16:00.604Z,100849.72
2023-09-01T02:17:03.594Z,100849.06
2023-09-01T02:18:09.349Z,100842.53
2023-09-01T02:19:13.230Z,100848.38
2023-09-01T02:20:18.269Z,100850.28
2023-09-01T02:21:21.204Z,100845.38
2023-09-01T02:22:24.079Z,100847.53
2023-09-01T02:23:26.087Z,100841.59
2023-09-01T02:24:28.159Z,100843.13
2023-09-01T02:25:30.168Z,100844.25
2023-09-01T02:26:32.141Z,100841.50
2023-09-01T02:27:34.171Z,100842.56
2023-09-01T02:28:36.220Z,100841.56
2023-09-01T02:29:38.219Z,100848.34
2023-09-01T02:30:40.331Z,100846.88
2023-09-01T02:31:42.396Z,100851.34
2023-09-01T02:32:44.417Z,100843.72
2023-09-01T02:33:46.467Z,100843.31
2023-09-01T02:34:48.497Z,100840.31
2023-09-01T02:35:50.508Z,100840.78
2023-09-01T02:36:52.526Z,100835.69
2023-09-01T02:37:54.577Z,100837.63
2023-09-01T02:38:56.805Z,100843.22
2023-09-01T02:39:58.831Z,100837.28
2023-09-01T02:41:00.804Z,100833.66
2023-09-01T02:42:03.864Z,100835.59
2023-09-01T02:43:05.871Z,100835.63
2023-09-01T02:44:08.619Z,100842.25
2023-09-01T02:45:16.175Z,100833.78
2023-09-01T02:46:18.250Z,100839.53
2023-09-01T02:47:20.227Z,100833.38
2023-09-01T02:48:22.190Z,100841.94
2023-09-01T02:49:24.198Z,100839.63
2023-09-01T02:50:26.181Z,100841.09
2023-09-01T02:51:28.175Z,100836.19
2023-09-01T02:52:30.150Z,100837.50
2023-09-01T02:53:32.922Z,100843.03
2023-09-01T02:54:34.904Z,100842.19
2023-09-01T02:55:36.895Z,100852.22
2023-09-01T02:56:38.860Z,100853.72
2023-09-01T02:57:40.867Z,100849.09
2023-09-01T02:58:42.837Z,100854.00
2023-09-01T02:59:44.856Z,100846.16
2023-09-01T03:00:47.898Z,100852.75
2023-09-01T03:01:49.925Z,100857.03
2023-09-01T03:02:52.075Z,100866.00
2023-09-01T03:03:54.253Z,100855.78
2023-09-01T03:04:58.146Z,100860.47
2023-09-01T03:06:00.160Z,100861.31
2023-09-01T03:07:02.169Z,100867.69
2023-09-01T03:08:04.602Z,100863.00
2023-09-01T03:09:07.185Z,100870.44
2023-09-01T03:10:09.690Z,100867.25
2023-09-01T03:11:11.682Z,100867.03
2023-09-01T03:12:13.675Z,100866.84
2023-09-01T03:13:15.665Z,100866.19
2023-09-01T03:14:17.654Z,100871.72
2023-09-01T03:15:19.657Z,100869.78
2023-09-01T03:16:23.056Z,100874.69
2023-09-01T03:17:25.091Z,100867.25
2023-09-01T03:18:27.097Z,100864.09
2023-09-01T03:19:29.133Z,100865.78
2023-09-01T03:20:31.129Z,100865.78
2023-09-01T03:21:33.126Z,100864.75
2023-09-01T03:22:35.119Z,100870.50
2023-09-01T03:23:37.156Z,100868.63
2023-09-01T03:24:39.271Z,100868.41
2023-09-01T03:25:41.239Z,100865.84
2023-09-01T03:26:43.244Z,100867.53
2023-09-01T03:27:45.273Z,100859.25
2023-09-01T03:28:47.304Z,100860.94
2023-09-01T03:29:55.790Z,100864.78
2023-09-01T03:30:57.795Z,100859.88
2023-09-01T03:31:59.853Z,100862.41
2023-09-01T03:33:01.956Z,100862.19
2023-09-01T03:34:04.589Z,100869.44
2023-09-01T03:35:06.891Z,100863.06
2023-09-01T03:36:09.462Z,100862.66
2023-09-01T03:37:13.313Z,100866.47
2023-09-01T03:38:15.483Z,100867.56
2023-09-01T03:39:19.597Z,100868.03
2023-09-01T03:40:22.495Z,100872.47
2023-09-01T03:41:24.549Z,100874.19
2023-09-01T03:42:26.925Z,100879.06
2023-09-01T03:43:28.935Z,100868.03
2023-09-01T03:44:30.906Z,100872.72
2023-09-01T03:45:32.888Z,100868.91
2023-09-01T03:46:35.202Z,100873.59
2023-09-01T03:47:37.213Z,100876.59
2023-09-01T03:48:39.244Z,100872.13
2023-09-01T03:49:41.228Z,100869.16
2023-09-01T03:50:43.228Z,100876.38
2023-09-01T03:51:45.228Z,100868.09
2023-09-01T03:52:47.198Z,100876.59
2023-09-01T03:53:50.069Z,100885.13
2023-09-01T03:54:52.059Z,100881.09
2023-09-01T03:55:54.080Z,100885.56
2023-09-01T03:56:56.125Z,100875.78
2023-09-01T03:57:58.092Z,100877.25
2023-09-01T03:59:00.170Z,100874.31
2023-09-01T04:00:05.635Z,100871.13
2023-09-01T04:01:09.642Z,100870.50
2023-09-01T04:02:11.903Z,100872.84
2023-09-01T04:03:13.885Z,100877.53
2023-09-01T04:04:15.947Z,100879.25
2023-09-01T04:05:17.960Z,100876.72
2023-09-01T04:06:19.945Z,100880.31
2023-09-01T04:07:21.964Z,100874.38
2023-09-01T04:08:23.976Z,100876.50
2023-09-01T04:09:25.946Z,100881.38
2023-09-01T04:10:29.486Z,100874.78
2023-09-01T04:11:31.480Z,100878.63
2023-09-01T04:12:33.445Z,100879.25
2023-09-01T04:13:35.703Z,100887.53
2023-09-01T04:14:37.686Z,100887.75
2023-09-01T04:15:39.891Z,100884.38
2023-09-01T04:16:41.871Z,100886.28
2023-09-01T04:17:43.910Z,100888.19
2023-09-01T04:18:45.899Z,100886.91
2023-09-01T04:19:50.772Z,100887.53
2023-09-01T04:20:54.111Z,100888.81
2023-09-01T04:21:56.130Z,100894.78
2023-09-01T04:22:58.123Z,100890.53
2023-09-01T04:24:00.139Z,100897.13
2023-09-01T04:25:02.185Z,100893.50
2023-09-01T04:26:04.418Z,100889.03
2023-09-01T04:27:06.524Z,100895.84
2023-09-01T04:28:08.523Z,100896.88
2023-09-01T04:29:10.524Z,100895.41
2023-09-01T04:30:12.764Z,100894.53
2023-09-01T04:31:25.852Z,100903.25
2023-09-01T04:32:28.027Z,100903.69
2023-09-01T04:33:30.527Z,100907.91
2023-09-01T04:34:33.832Z,100904.94
2023-09-01T04:35:35.967Z,100910.25
2023-09-01T04:36:46.959Z,100904.09
2023-09-01T04:37:49.845Z,100910.06
2023-09-01T04:38:51.904Z,100909.63
2023-09-01T04:39:53.906Z,100912.59
2023-09-01T04:40:57.684Z,100910.91
2023-09-01T04:41:59.701Z,100915.13
2023-09-01T04:43:01.764Z,100912.38
2023-09-01T04:44:03.921Z,100912.59
2023-09-01T04:45:06.301Z,100910.69
2023-09-01T04:46:08.349Z,100906.84
2023-09-01T04:47:10.374Z,100905.38
2023-09-01T04:48:12.752Z,100903.03
2023-09-01T04:49:14.998Z,100903.69
2023-09-01T04:50:17.000Z,100909.19
2023-09-01T04:51:19.030Z,100915.56
2023-09-01T04:52:30.008Z,100911.97
2023-09-01T04:53:39.313Z,100912.59
2023-09-01T04:54:41.327Z,100912.78
2023-09-01T04:55:43.487Z,100914.06
2023-09-01T04:56:45.570Z,100921.28
2023-09-01T04:57:47.540Z,100911.75
2023-09-01T04:58:49.516Z,100915.13
2023-09-01T04:59:51.949Z,100918.09
2023-09-01T05:00:54.839Z,100915.75
2023-09-01T05:01:57.013Z,100919.59
2023-09-01T05:03:05.599Z,100916.81
2023-09-01T05:04:11.198Z,100917.03
2023-09-01T05:05:13.800Z,100919.34
2023-09-01T05:06:15.832Z,100927.22
2023-09-01T05:07:17.830Z,100920.63
2023-09-01T05:08:19.873Z,100922.94
2023-09-01T05:09:21.850Z,100926.34
2023-09-01T05:10:23.894Z,100923.16
2023-09-01T05:11:25.895Z,100921.00
2023-09-01T05:12:27.904Z,100917.41
2023-09-01T05:13:29.917Z,100920.56
2023-09-01T05:14:32.966Z,100924.81
2023-09-01T05:15:36.313Z,100919.72
2023-09-01T05:16:38.360Z,100925.44
2023-09-01T05:17:40.397Z,100921.41
2023-09-01T05:18:43.177Z,100921.59
2023-09-01T05:19:45.239Z,100911.38
2023-09-01T05:20:50.074Z,100914.78
2023-09-01T05:21:52.083Z,100913.28
2023-09-01T05:22:54.441Z,100916.69
2023-09-01T05:23:56.576Z,100912.84
2023-09-01T05:24:58.552Z,100914.94
2023-09-01T05:26:00.559Z,100917.50
2023-09-01T05:27:02.572Z,100917.91
2023-09-01T05:28:04.859Z,100919.59
2023-09-01T05:29:07.097Z,100920.84
2023-09-01T05:30:09.227Z,100921.06
2023-09-01T05:31:11.300Z,100920.63
2023-09-01T05:32:13.809Z,100916.34
2023-09-01T05:33:16.316Z,100912.53
2023-09-01T05:34:18.836Z,100919.53
2023-09-01T05:35:20.852Z,100922.91
2023-09-01T05:36:22.851Z,100921.41
2023-09-01T05:37:24.821Z,100917.56
2023-09-01T05:38:26.825Z,100921.81
2023-09-01T05:39:29.249Z,100913.28
2023-09-01T05:40:31.278Z,100927.09
2023-09-01T05:41:33.319Z,100921.50
2023-09-01T05:42:35.328Z,100921.06
2023-09-01T05:43:37.676Z,100922.75
2023-09-01T05:44:39.706Z,100922.94
2023-09-01T05:45:41.789Z,100929.06
2023-09-01T05:46:43.831Z,100928.59
2023-09-01T05:47:45.962Z,100928.78
2023-09-01T05:48:48.031Z,100928.97
2023-09-01T05:49:50.073Z,100919.97
2023-09-01T05:50:52.093Z,100918.47
2023-09-01T05:51:54.107Z,100920.94
2023-09-01T05:52:56.173Z,100920.25
2023-09-01T05:53:58.199Z,100925.97
2023-09-01T05:55:00.177Z,100929.13
2023-09-01T05:56:02.191Z,100927.00
2023-09-01T05:57:04.402Z,100930.16
2023-09-01T05:58:06.460Z,100936.09
2023-09-01T05:59:08.464Z,100942.63
2023-09-01T06:00:11.243Z,100934.94
2023-09-01T06:01:13.202Z,100932.59
2023-09-01T06:02:15.365Z,100934.03
2023-09-01T06:03:19.947Z,100935.91
2023-09-01T06:04:21.976Z,100933.91
2023-09-01T06:05:23.989Z,100935.16
2023-09-01T06:06:26.012Z,100930.59
2023-09-01T06:07:28.004Z,100941.16
2023-09-01T06:08:29.973Z,100938.09
2023-09-01T06:09:31.951Z,100941.88
2023-09-01T06:10:33.939Z,100935.41
2023-09-01T06:11:38.459Z,100937.47
2023-09-01T06:12:40.498Z,100940.63
2023-09-01T06:13:42.745Z,100954.50
2023-09-01T06:14:45.553Z,100947.41
2023-09-01T06:15:47.717Z,100943.16
2023-09-01T06:16:52.286Z,100954.19
2023-09-01T06:17:54.370Z,100950.72
2023-09-01T06:18:56.572Z,100960.25
2023-09-01T06:19:58.579Z,100958.94
2023-09-01T06:21:00.592Z,100954.63
2023-09-01T06:22:02.620Z,100957.78
2023-09-01T06:23:04.623Z,100959.03
2023-09-01T06:24:06.730Z,100962.41
2023-09-01T06:25:08.779Z,100967.88
2023-09-01T06:26:11.951Z,100966.97
2023-09-01T06:27:13.977Z,100973.28
2023-09-01T06:28:16.190Z,100965.22
2023-09-01T06:29:18.374Z,100971.91
2023-09-01T06:30:20.415Z,100965.78
2023-09-01T06:31:22.464Z,100960.13
2023-09-01T06:32:25.031Z,100971.47
2023-09-01T06:33:27.077Z,100972.47
2023-09-01T06:34:29.091Z,100971.06
2023-09-01T06:35:31.060Z,100968.47
2023-09-01T06:36:33.076Z,100961.69
2023-09-01T06:37:35.036Z,100964.47
2023-09-01T06:38:37.099Z,100970.66
2023-09-01T06:39:39.104Z,100964.38
2023-09-01T06:40:41.111Z,100965.22
2023-09-01T06:41:43.877Z,100969.31
2023-09-01T06:42:46.088Z,100966.88
2023-09-01T06:43:48.096Z,100963.97
2023-09-01T06:44:50.107Z,100965.91
2023-09-01T06:45:52.162Z,100959.50
2023-09-01T06:46:54.175Z,100960.09
2023-09-01T06:47:59.150Z,100959.59
2023-09-01T06:49:01.186Z,100959.34
2023-09-01T06:50:03.191Z,100965.63
2023-09-01T06:51:05.155Z,100960.91
2023-09-01T06:52:07.153Z,100959.59
2023-09-01T06:53:09.159Z,100960.53
2023-09-01T06:54:11.199Z,100957.84
2023-09-01T06:55:14.017Z,100959.41
2023-09-01T06:56:16.055Z,100964.88
2023-09-01T06:57:18.032Z,100963.63
2023-09-01T06:58:20.067Z,100962.97
2023-09-01T06:59:23.902Z,100965.03
2023-09-01T07:00:27.546Z,100965.47
2023-09-01T07:01:29.665Z,100962.53
2023-09-01T07:02:31.949Z,100962.97
2023-09-01T07:03:34.000Z,100962.22
2023-09-01T07:04:36.014Z,100963.84
2023-09-01T07:05:38.068Z,100958.09
2023-09-01T07:06:40.041Z,100959.81
2023-09-01T07:07:42.005Z,100958.78
2023-09-01T07:08:44.793Z,100959.38
2023-09-01T07:09:46.780Z,100960.72
2023-09-01T07:10:48.757Z,100961.06
2023-09-01T07:11:50.729Z,100956.81
2023-09-01T07:12:52.780Z,100952.91
2023-09-01T07:13:54.751Z,100954.09
2023-09-01T07:14:56.759Z,100958.75
2023-09-01T07:15:58.919Z,100958.13
2023-09-01T07:17:00.955Z,100970.13
2023-09-01T07:18:03.077Z,100960.16
2023-09-01T07:19:05.077Z,100957.63
2023-09-01T07:20:07.697Z,100962.69
2023-09-01T07:21:09.758Z,100964.72
2023-09-01T07:22:11.749Z,100961.41
2023-09-01T07:23:13.716Z,100964.59
2023-09-01T07:24:16.134Z,100974.81
2023-09-01T07:25:18.129Z,100962.63
2023-09-01T07:26:20.132Z,100965.41
2023-09-01T07:27:22.182Z,100971.38
2023-09-01T07:28:24.188Z,100968.78
2023-09-01T07:29:26.213Z,100963.63
2023-09-01T07:30:28.195Z,100965.00
2023-09-01T07:31:30.313Z,100966.03
2023-09-01T07:32:33.256Z,100970.81
2023-09-01T07:33:37.162Z,100966.25
2023-09-01T07:34:39.235Z,100972.41
2023-09-01T07:35:46.448Z,100974.31
2023-09-01T07:36:48.425Z,100977.31
2023-09-01T07:37:50.432Z,100972.09
2023-09-01T07:38:52.440Z,100969.81
2023-09-01T07:39:54.416Z,100975.31
2023-09-01T07:40:56.416Z,100979.53
2023-09-01T07:41:58.693Z,100973.94
2023-09-01T07:43:01.310Z,100969.94
2023-09-01T07:44:03.286Z,100978.44
2023-09-01T07:45:05.764Z,100975.69
2023-09-01T07:46:07.788Z,100985.91
2023-09-01T07:47:09.806Z,100986.16
2023-09-01T07:48:21.359Z,100979.41
2023-09-01T07:49:24.985Z,100980.81
2023-09-01T07:50:31.327Z,100984.63
2023-09-01T07:51:33.413Z,100987.00
2023-09-01T07:52:35.548Z,100981.00
2023-09-01T07:53:37.839Z,100986.72
2023-09-01T07:54:39.922Z,100980.06
2023-09-01T07:55:42.784Z,100980.41
2023-09-01T07:56:44.810Z,100985.22
2023-09-01T07:57:46.819Z,100988.38
2023-09-01T07:58:48.847Z,100989.50
2023-09-01T07:59:50.824Z,100990.34
2023-09-01T08:00:53.315Z,100995.13
2023-09-01T08:01:55.373Z,100988.66
2023-09-01T08:02:57.538Z,100990.88
2023-09-01T08:04:00.943Z,100983.00
2023-09-01T08:05:04.705Z,100987.50
2023-09-01T08:06:06.760Z,100988.63
2023-09-01T08:07:08.823Z,100977.66
2023-09-01T08:08:14.632Z,100993.38
2023-09-01T08:09:17.199Z,100988.06
2023-09-01T08:10:19.182Z,100981.31
2023-09-01T08:11:21.209Z,100985.56
2023-09-01T08:12:23.242Z,100984.72
2023-09-01T08:13:28.360Z,100984.72
2023-09-01T08:14:30.815Z,100986.09
2023-09-01T08:15:33.692Z,100988.63
2023-09-01T08:16:35.684Z,100982.06
2023-09-01T08:17:37.723Z,100981.44
2023-09-01T08:18:39.735Z,100984.94
2023-09-01T08:19:41.750Z,100982.88
2023-09-01T08:20:43.786Z,100985.81
2023-09-01T08:21:45.826Z,100986.97
2023-09-01T08:22:47.803Z,100977.94
2023-09-01T08:23:50.572Z,100997.56
2023-09-01T08:24:52.569Z,100985.47
2023-09-01T08:25:54.662Z,100989.91
2023-09-01T08:26:56.664Z,100991.13
2023-09-01T08:27:58.697Z,100992.00
2023-09-01T08:29:00.841Z,100989.50
2023-09-01T08:30:04.642Z,100994.63
2023-09-01T08:31:06.958Z,100994.38
2023-09-01T08:32:09.024Z,100992.44
2023-09-01T08:33:15.182Z,100985.44
2023-09-01T08:34:19.356Z,100990.47
2023-09-01T08:35:22.366Z,100999.75
2023-09-01T08:36:24.395Z,100993.28
2023-09-01T08:37:26.406Z,100993.59
2023-09-01T08:38:28.468Z,100993.91
2023-09-01T08:39:30.432Z,100996.41
2023-09-01T08:40:32.497Z,100996.41
2023-09-01T08:41:37.600Z,101001.69
2023-09-01T08:42:49.460Z,100995.16
2023-09-01T08:43:51.507Z,100997.38
2023-09-01T08:44:53.601Z,100990.84
2023-09-01T08:46:04.741Z,100996.28
2023-09-01T08:47:16.524Z,100995.09
2023-09-01T08:48:18.744Z,100998.59
2023-09-01T08:49:21.067Z,100992.94
2023-09-01T08:50:23.070Z,100995.22
2023-09-01T08:51:25.071Z,100992.69
2023-09-01T08:52:27.064Z,100999.44
2023-09-01T08:53:29.054Z,100987.28
2023-09-01T08:54:31.873Z,100996.06
2023-09-01T08:55:33.925Z,100985.16
2023-09-01T08:56:36.269Z,100988.88
2023-09-01T08:57:39.194Z,100992.34
2023-09-01T08:58:42.023Z,100986.53
2023-09-01T08:59:44.722Z,100985.38
2023-09-01T09:00:46.950Z,100987.59
2023-09-01T09:01:51.908Z,100993.56
2023-09-01T09:03:06.557Z,100994.63
2023-09-01T09:04:10.001Z,100991.56
2023-09-01T09:05:14.274Z,100993.72
2023-09-01T09:06:17.667Z,100998.09
2023-09-01T09:07:21.440Z,100990.50
2023-09-01T09:08:24.187Z,100983.44
2023-09-01T09:09:26.184Z,100987.34
2023-09-01T09:10:47.558Z,100993.19
2023-09-01T09:11:59.581Z,100989.44
2023-09-01T09:13:01.599Z,100992.16
2023-09-01T09:14:09.966Z,100984.63
2023-09-01T09:15:16.191Z,100994.91
2023-09-01T09:16:18.430Z,100990.41
2023-09-01T09:17:22.594Z,100996.06
2023-09-01T09:18:30.807Z,100994.59
2023-09-01T09:19:32.973Z,100997.81
2023-09-01T09:20:40.771Z,100998.03
2023-09-01T09:21:42.767Z,100987.84
2023-09-01T09:22:55.361Z,100991.31
2023-09-01T09:24:19.774Z,100985.88
2023-09-01T09:25:33.124Z,100982.09
2023-09-01T09:26:35.096Z,100992.75
2023-09-01T09:27:37.076Z,100990.59
2023-09-01T09:28:39.219Z,100992.34
2023-09-01T09:29:44.450Z,100995.28
2023-09-01T09:30:50.478Z,100997.16
2023-09-01T09:31:52.540Z,100998.59
2023-09-01T09:33:04.559Z,101000.06
2023-09-01T09:34:23.964Z,100998.97
2023-09-01T09:35:27.460Z,100996.59
2023-09-01T09:36:38.236Z,100993.56
2023-09-01T09:37:42.158Z,100994.59
2023-09-01T09:38:45.493Z,100990.84
2023-09-01T09:39:47.500Z,100997.81
2023-09-01T09:40:59.237Z,100992.66
2023-09-01T09:42:01.246Z,100994.78
2023-09-01T09:43:03.540Z,100989.81
2023-09-01T09:44:05.681Z,100987.13
2023-09-01T09:45:28.545Z,100986.50
2023-09-01T09:46:30.638Z,100987.22
2023-09-01T09:47:33.155Z,100979.66
2023-09-01T09:48:35.952Z,100978.00
2023-09-01T09:49:40.743Z,100976.97
2023-09-01T09:50:42.735Z,100979.88
2023-09-01T09:51:45.108Z,100975.88
2023-09-01T09:52:51.314Z,100976.00
2023-09-01T09:53:53.319Z,100980.09
2023-09-01T09:54:59.741Z,100973.72
2023-09-01T09:56:16.000Z,100968.66
2023-09-01T09:57:17.963Z,100974.97
2023-09-01T09:58:19.979Z,100971.50
2023-09-01T09:59:26.421Z,100967.13
2023-09-01T10:00:28.806Z,100972.78
2023-09-01T10:01:45.407Z,100969.75
2023-09-01T10:02:58.440Z,100976.13
2023-09-01T10:04:00.473Z,100977.38
2023-09-01T10:05:03.199Z,100970.69
2023-09-01T10:06:06.875Z,100971.78
2023-09-01T10:07:08.889Z,100967.13
2023-09-01T10:08:11.054Z,100978.06
2023-09-01T10:09:14.812Z,100972.81
2023-09-01T10:10:16.803Z,100982.38
2023-09-01T10:11:18.802Z,100970.38
2023-09-01T10:12:20.961Z,100980.59
2023-09-01T10:13:23.849Z,100973.56
2023-09-01T10:14:25.900Z,100975.94
2023-09-01T10:15:27.999Z,100974.91
2023-09-01T10:16:30.064Z,100971.03
2023-09-01T10:17:35.952Z,100973.84
2023-09-01T10:18:38.128Z,100969.00
2023-09-01T10:19:40.174Z,100964.16
2023-09-01T10:20:43.820Z,100964.13
2023-09-01T10:21:45.841Z,100972.16
2023-09-01T10:22:47.874Z,100963.94
2023-09-01T10:23:49.951Z,100969.03
2023-09-01T10:25:11.377Z,100972.38
2023-09-01T10:26:26.437Z,100969.66
2023-09-01T10:27:28.638Z,100964.63
2023-09-01T10:28:30.631Z,100970.13
2023-09-01T10:29:32.906Z,100971.50
2023-09-01T10:30:36.517Z,100970.06
2023-09-01T10:31:38.615Z,100969.25
2023-09-01T10:32:40.702Z,100975.59
2023-09-01T10:33:42.804Z,100970.78
2023-09-01T10:34:54.262Z,100974.44
2023-09-01T10:35:59.009Z,100965.25
2023-09-01T10:37:24.826Z,100960.56
2023-09-01T10:38:35.495Z,100954.88
2023-09-01T10:39:37.472Z,100963.41
2023-09-01T10:41:00.753Z,100966.94
2023-09-01T10:42:08.855Z,100963.25
2023-09-01T10:43:12.698Z,100958.56
2023-09-01T10:44:14.748Z,100957.22
2023-09-01T10:45:16.795Z,100956.72
2023-09-01T10:46:18.785Z,100962.91
2023-09-01T10:47:32.965Z,100958.03
2023-09-01T10:49:01.441Z,100961.72
2023-09-01T10:50:04.263Z,100951.00
2023-09-01T10:51:18.982Z,100953.19
2023-09-01T10:52:20.991Z,100953.22
2023-09-01T10:53:30.449Z,100946.84
2023-09-01T10:54:32.404Z,100950.38
2023-09-01T10:55:36.141Z,100942.69
2023-09-01T10:57:00.591Z,100941.22
2023-09-01T10:58:08.851Z,100932.31
2023-09-01T10:59:10.849Z,100929.47
2023-09-01T11:00:32.317Z,100934.94
2023-09-01T11:01:37.836Z,100926.72
2023-09-01T11:02:39.991Z,100933.75
2023-09-01T11:03:42.339Z,100918.22
2023-09-01T11:04:44.357Z,100933.91
2023-09-01T11:05:46.428Z,100930.91
2023-09-01T11:07:01.679Z,100934.69
2023-09-01T11:08:18.833Z,100932.59
2023-09-01T11:09:21.042Z,100936.28
2023-09-01T11:10:26.528Z,100932.63
2023-09-01T11:11:29.128Z,100928.31
2023-09-01T11:12:33.075Z,100933.00
2023-09-01T11:13:35.479Z,100935.00
2023-09-01T11:14:55.372Z,100933.44
2023-09-01T11:15:57.404Z,100936.03
2023-09-01T11:17:01.469Z,100927.44
2023-09-01T11:18:03.669Z,100924.91
2023-09-01T11:19:05.689Z,100932.38
2023-09-01T11:20:11.673Z,100920.09
2023-09-01T11:21:13.694Z,100926.75
2023-09-01T11:22:15.899Z,100934.50
2023-09-01T11:23:21.849Z,100925.78
2023-09-01T11:24:23.812Z,100916.28
2023-09-01T11:25:28.560Z,100919.28
2023-09-01T11:26:30.853Z,100928.28
2023-09-01T11:27:32.874Z,100929.25
2023-09-01T11:28:34.861Z,100926.72
2023-09-01T11:29:36.859Z,100931.72
2023-09-01T11:30:38.887Z,100923.63
2023-09-01T11:31:41.542Z,100927.44
2023-09-01T11:32:43.629Z,100920.91
2023-09-01T11:33:54.989Z,100924.03
2023-09-01T11:34:56.960Z,100921.72
2023-09-01T11:36:09.167Z,100923.25
2023-09-01T11:37:11.162Z,100929.47
2023-09-01T11:38:22.051Z,100917.56
2023-09-01T11:39:24.022Z,100927.69
2023-09-01T11:40:26.511Z,100924.88
2023-09-01T11:41:28.764Z,100930.34
2023-09-01T11:42:30.888Z,100928.44
2023-09-01T11:43:33.073Z,100920.44
2023-09-01T11:44:35.117Z,100918.13
2023-09-01T11:45:46.343Z,100923.38
2023-09-01T11:46:48.400Z,100927.69
2023-09-01T11:47:56.205Z,100919.59
2023-09-01T11:48:58.204Z,100918.97
2023-09-01T11:50:00.187Z,100913.97
2023-09-01T11:51:02.341Z,100920.50
2023-09-01T11:52:04.494Z,100913.91
2023-09-01T11:53:06.456Z,100915.06
2023-09-01T11:54:09.412Z,100906.84
2023-09-01T11:55:11.458Z,100912.38
2023-09-01T11:56:22.210Z,100914.38
2023-09-01T11:57:25.032Z,100896.34
2023-09-01T11:58:34.287Z,100912.91
2023-09-01T11:59:36.290Z,100908.28
2023-09-01T12:00:40.160Z,100908.31
2023-09-01T12:01:43.317Z,100907.34
2023-09-01T12:02:45.509Z,100907.53
2023-09-01T12:03:54.221Z,100904.06
2023-09-01T12:04:56.319Z,100901.56
2023-09-01T12:05:58.344Z,100900.59